createdAt,value
2023-01-07T00:01:06.493Z,10.51
2023-01-07T00:03:33.770Z,10.54
2023-01-07T00:06:05.515Z,10.54
2023-01-07T00:08:33.656Z,10.56
2023-01-07T00:11:08.580Z,10.55
2023-01-07T00:13:36.104Z,10.52
2023-01-07T00:16:11.250Z,10.46
2023-01-07T00:18:38.187Z,10.46
2023-01-07T00:21:07.191Z,10.40
2023-01-07T00:23:35.566Z,10.45
2023-01-07T00:26:04.714Z,10.50
2023-01-07T00:28:33.824Z,10.52
2023-01-07T00:31:01.655Z,10.44
2023-01-07T00:33:28.386Z,10.45
2023-01-07T00:36:08.408Z,10.48
2023-01-07T00:38:35.815Z,10.49
2023-01-07T00:41:02.907Z,10.40
2023-01-07T00:43:29.665Z,10.43
2023-01-07T00:45:56.191Z,10.39
2023-01-07T00:48:23.889Z,10.45
2023-01-07T00:50:51.912Z,10.38
2023-01-07T00:53:18.868Z,10.44
2023-01-07T00:55:45.371Z,10.41
2023-01-07T00:58:15.826Z,10.41
2023-01-07T01:00:42.833Z,10.45
2023-01-07T01:03:11.814Z,10.43
2023-01-07T01:05:39.090Z,10.42
2023-01-07T01:08:06.182Z,10.49
2023-01-07T01:10:32.694Z,10.49
2023-01-07T01:13:00.191Z,10.54
2023-01-07T01:15:26.803Z,10.57
2023-01-07T01:17:53.609Z,10.56
2023-01-07T01:20:20.501Z,10.57
2023-01-07T01:22:47.079Z,10.53
2023-01-07T01:25:14.103Z,10.56
2023-01-07T01:27:40.608Z,10.57
2023-01-07T01:30:07.717Z,10.63
2023-01-07T01:32:36.800Z,10.60
2023-01-07T01:35:03.381Z,10.60
2023-01-07T01:37:29.792Z,10.58
2023-01-07T01:39:57.372Z,10.67
2023-01-07T01:42:25.177Z,10.69
2023-01-07T01:44:58.033Z,10.67
2023-01-07T01:47:52.533Z,10.64
2023-01-07T01:50:41.376Z,10.70
2023-01-07T01:53:13.499Z,10.64
2023-01-07T01:55:49.064Z,10.64
2023-01-07T01:58:28.062Z,10.56
2023-01-07T02:00:55.403Z,10.54
2023-01-07T02:03:24.423Z,10.55
2023-01-07T02:05:51.162Z,10.53
2023-01-07T02:08:22.003Z,10.56
2023-01-07T02:11:00.925Z,10.56
2023-01-07T02:13:56.534Z,10.48
2023-01-07T02:16:51.145Z,10.45
2023-01-07T02:19:28.361Z,10.49
2023-01-07T02:22:05.695Z,10.42
2023-01-07T02:24:46.381Z,10.46
2023-01-07T02:27:21.463Z,10.44
2023-01-07T02:30:04.094Z,10.46
2023-01-07T02:32:54.198Z,10.42
2023-01-07T02:35:38.682Z,10.45
2023-01-07T02:38:20.685Z,10.41
2023-01-07T02:41:17.199Z,10.44
2023-01-07T02:43:55.018Z,10.42
2023-01-07T02:46:33.564Z,10.42
2023-01-07T02:49:04.245Z,10.42
2023-01-07T02:51:35.815Z,10.35
2023-01-07T02:54:02.992Z,10.34
2023-01-07T02:57:06.534Z,10.34
2023-01-07T02:59:58.138Z,10.22
2023-01-07T03:03:02.697Z,10.22
2023-01-07T03:05:40.012Z,10.23
2023-01-07T03:08:26.137Z,10.23
2023-01-07T03:11:01.673Z,10.11
2023-01-07T03:13:51.932Z,10.07
2023-01-07T03:16:25.939Z,10.07
2023-01-07T03:19:07.140Z,10.07
2023-01-07T03:21:35.928Z,10.06
2023-01-07T03:24:02.762Z,10.02
2023-01-07T03:26:37.907Z,10.05
2023-01-07T03:29:07.049Z,10.00
2023-01-07T03:31:36.525Z,10.06
2023-01-07T03:34:06.548Z,10.09
2023-01-07T03:36:37.799Z,10.08
2023-01-07T03:39:07.113Z,10.01
2023-01-07T03:41:52.124Z,10.09
2023-01-07T03:44:18.560Z,10.06
2023-01-07T03:46:45.168Z,10.04
2023-01-07T03:49:11.981Z,10.00
2023-01-07T03:51:38.566Z,9.97
2023-01-07T03:54:05.136Z,9.99
2023-01-07T03:56:31.792Z,9.99
2023-01-07T03:58:58.161Z,9.98
2023-01-07T04:01:24.632Z,9.94
2023-01-07T04:03:51.264Z,9.96
2023-01-07T04:06:17.621Z,9.94
2023-01-07T04:08:44.150Z,9.91
2023-01-07T04:11:11.002Z,9.90
2023-01-07T04:13:38.082Z,9.85
2023-01-07T04:16:04.882Z,9.87
2023-01-07T04:18:31.489Z,9.85
2023-01-07T04:20:57.869Z,9.77
2023-01-07T04:23:24.484Z,9.77
2023-01-07T04:25:52.567Z,9.72
2023-01-07T04:28:22.254Z,9.64
2023-01-07T04:30:48.769Z,9.67
2023-01-07T04:33:15.188Z,9.71
2023-01-07T04:35:41.713Z,9.69
2023-01-07T04:38:08.261Z,9.68
2023-01-07T04:40:34.669Z,9.64
2023-01-07T04:43:02.114Z,9.69
2023-01-07T04:45:29.950Z,9.73
2023-01-07T04:47:58.028Z,9.74
2023-01-07T04:50:25.086Z,9.72
2023-01-07T04:52:51.982Z,9.74
2023-01-07T04:55:18.721Z,9.78
2023-01-07T04:57:46.481Z,9.77
2023-01-07T05:00:14.405Z,9.86
2023-01-07T05:02:41.808Z,9.82
2023-01-07T05:05:10.695Z,9.81
2023-01-07T05:07:38.263Z,9.82
2023-01-07T05:10:06.303Z,9.84
2023-01-07T05:12:36.776Z,9.87
2023-01-07T05:15:06.494Z,9.84
2023-01-07T05:17:35.395Z,9.86
2023-01-07T05:20:05.028Z,9.90
2023-01-07T05:22:31.584Z,9.89
2023-01-07T05:24:57.943Z,9.84
2023-01-07T05:27:26.396Z,9.89
2023-01-07T05:29:52.856Z,9.91
2023-01-07T05:32:19.322Z,9.92
2023-01-07T05:34:45.773Z,9.89
2023-01-07T05:37:12.553Z,9.82
2023-01-07T05:39:40.672Z,9.85
2023-01-07T05:42:07.922Z,9.79
2023-01-07T05:44:34.465Z,9.84
2023-01-07T05:47:00.899Z,9.75
2023-01-07T05:49:27.311Z,9.78
2023-01-07T05:51:53.669Z,9.73
2023-01-07T05:54:20.024Z,9.73
2023-01-07T05:56:46.373Z,9.72
2023-01-07T05:59:12.770Z,9.73
2023-01-07T06:01:39.108Z,9.83
2023-01-07T06:04:05.628Z,9.79
2023-01-07T06:06:31.977Z,9.71
2023-01-07T06:08:58.354Z,9.76
2023-01-07T06:11:24.775Z,9.79
2023-01-07T06:13:51.191Z,9.72
2023-01-07T06:16:17.655Z,9.72
2023-01-07T06:18:44.041Z,9.66
2023-01-07T06:21:10.459Z,9.68
2023-01-07T06:23:37.168Z,9.65
2023-01-07T06:26:03.630Z,9.57
2023-01-07T06:28:30.004Z,9.59
2023-01-07T06:30:56.387Z,9.65
2023-01-07T06:33:22.817Z,9.61
2023-01-07T06:35:49.210Z,9.53
2023-01-07T06:38:15.612Z,9.50
2023-01-07T06:40:42.039Z,9.44
2023-01-07T06:43:08.436Z,9.42
2023-01-07T06:45:34.903Z,9.56
2023-01-07T06:48:01.580Z,9.51
2023-01-07T06:50:27.946Z,9.54
2023-01-07T06:52:54.382Z,9.53
2023-01-07T06:55:20.727Z,9.49
2023-01-07T06:57:47.130Z,9.54
2023-01-07T07:00:14.207Z,9.48
2023-01-07T07:02:40.705Z,9.51
2023-01-07T07:05:07.454Z,9.47
2023-01-07T07:07:34.064Z,9.45
2023-01-07T07:10:04.450Z,9.44
2023-01-07T07:12:30.803Z,9.45
2023-01-07T07:14:57.139Z,9.46
2023-01-07T07:17:23.521Z,9.48
2023-01-07T07:19:49.899Z,9.48
2023-01-07T07:22:16.286Z,9.51
2023-01-07T07:24:42.692Z,9.50
2023-01-07T07:27:09.106Z,9.53
2023-01-07T07:29:35.454Z,9.55
2023-01-07T07:32:01.897Z,9.59
2023-01-07T07:34:28.305Z,9.59
2023-01-07T07:36:54.653Z,9.57
2023-01-07T07:39:21.148Z,9.61
2023-01-07T07:41:47.501Z,9.67
2023-01-07T07:44:16.972Z,9.70
2023-01-07T07:46:43.401Z,9.75
2023-01-07T07:49:11.272Z,9.86
2023-01-07T07:51:38.048Z,9.82
2023-01-07T07:54:04.532Z,9.84
2023-01-07T07:56:30.986Z,9.85
2023-01-07T07:58:57.377Z,9.86
2023-01-07T08:01:23.830Z,9.87
2023-01-07T08:03:50.316Z,9.92
2023-01-07T08:06:16.669Z,10.00
2023-01-07T08:08:43.111Z,9.96
2023-01-07T08:11:09.701Z,9.98
2023-01-07T08:13:36.147Z,10.00
2023-01-07T08:16:02.626Z,9.99
2023-01-07T08:18:29.023Z,9.98
2023-01-07T08:20:55.705Z,9.99
2023-01-07T08:23:22.226Z,10.05
2023-01-07T08:25:48.840Z,10.06
2023-01-07T08:28:15.247Z,10.12
2023-01-07T08:30:42.495Z,10.10
2023-01-07T08:33:09.164Z,10.07
2023-01-07T08:35:35.725Z,10.09
2023-01-07T08:38:07.830Z,10.10
2023-01-07T08:40:35.499Z,10.19
2023-01-07T08:43:04.054Z,10.20
2023-01-07T08:45:31.226Z,10.22
2023-01-07T08:47:57.844Z,10.23
2023-01-07T08:50:29.717Z,10.24
2023-01-07T08:52:56.381Z,10.20
2023-01-07T08:55:22.982Z,10.17
2023-01-07T08:57:49.778Z,10.23
2023-01-07T09:00:17.688Z,10.27
2023-01-07T09:02:44.818Z,10.28
2023-01-07T09:05:11.555Z,10.24
2023-01-07T09:07:38.014Z,10.27
2023-01-07T09:10:05.437Z,10.26
2023-01-07T09:12:32.104Z,10.26
2023-01-07T09:14:58.535Z,10.28
2023-01-07T09:17:24.924Z,10.31
2023-01-07T09:19:51.253Z,10.29
2023-01-07T09:22:17.601Z,10.34
2023-01-07T09:24:44.910Z,10.36
2023-01-07T09:27:12.475Z,10.35
2023-01-07T09:29:38.840Z,10.31
2023-01-07T09:32:05.277Z,10.31
2023-01-07T09:34:32.070Z,10.31
2023-01-07T09:36:58.502Z,10.36
2023-01-07T09:39:24.921Z,10.36
2023-01-07T09:42:03.572Z,10.33
2023-01-07T09:44:41.698Z,10.33
2023-01-07T09:47:09.655Z,10.38
2023-01-07T09:49:36.349Z,10.35
2023-01-07T09:52:11.022Z,10.34
2023-01-07T09:54:39.343Z,10.35
2023-01-07T09:57:05.993Z,10.37
2023-01-07T09:59:32.764Z,10.38
2023-01-07T10:02:37.827Z,10.38
2023-01-07T10:05:38.331Z,10.35
2023-01-07T10:08:37.217Z,10.31
2023-01-07T10:11:33.325Z,10.35
2023-01-07T10:14:37.256Z,10.38
2023-01-07T10:17:26.589Z,10.46
2023-01-07T10:20:07.120Z,10.43
2023-01-07T10:22:48.854Z,10.47
2023-01-07T10:25:20.347Z,10.42
2023-01-07T10:27:48.427Z,10.48
2023-01-07T10:30:30.948Z,10.43
2023-01-07T10:33:17.820Z,10.49
2023-01-07T10:35:48.790Z,10.50
2023-01-07T10:38:19.565Z,10.56
2023-01-07T10:40:58.011Z,10.62
2023-01-07T10:43:46.048Z,10.71
2023-01-07T10:46:47.223Z,10.86
2023-01-07T10:49:44.575Z,10.99
2023-01-07T10:52:19.863Z,11.00
2023-01-07T10:55:05.105Z,11.11
2023-01-07T10:57:33.473Z,11.18
2023-01-07T11:00:02.592Z,11.27
2023-01-07T11:02:29.746Z,11.33
2023-01-07T11:04:57.184Z,11.43
2023-01-07T11:07:40.780Z,11.41
2023-01-07T11:10:12.503Z,11.46
2023-01-07T11:12:51.951Z,11.50
2023-01-07T11:15:39.759Z,11.50
2023-01-07T11:18:31.208Z,11.54
2023-01-07T11:20:59.356Z,11.53
2023-01-07T11:23:38.535Z,11.61
2023-01-07T11:26:16.061Z,11.49
2023-01-07T11:29:13.587Z,11.59
2023-01-07T11:31:50.587Z,11.47
2023-01-07T11:34:23.954Z,11.51
2023-01-07T11:36:51.093Z,11.54
2023-01-07T11:39:29.675Z,11.49
2023-01-07T11:41:57.877Z,11.51
2023-01-07T11:44:25.164Z,11.48
2023-01-07T11:46:52.620Z,11.48
2023-01-07T11:49:23.667Z,11.48
2023-01-07T11:51:50.242Z,11.44
2023-01-07T11:54:25.536Z,11.41
2023-01-07T11:56:54.157Z,11.44
2023-01-07T11:59:21.322Z,11.42
2023-01-07T12:01:53.792Z,11.46
2023-01-07T12:04:26.555Z,11.36
2023-01-07T12:06:56.836Z,11.33
2023-01-07T12:09:35.551Z,11.33
2023-01-07T12:12:34.365Z,11.36
2023-01-07T12:15:04.693Z,11.34
2023-01-07T12:17:34.353Z,11.23
2023-01-07T12:20:12.755Z,11.20
2023-01-07T12:23:07.771Z,11.19
2023-01-07T12:26:15.007Z,11.14
2023-01-07T12:28:50.349Z,11.17
2023-01-07T12:31:50.167Z,11.13
2023-01-07T12:34:29.608Z,11.17
2023-01-07T12:37:03.899Z,11.17
2023-01-07T12:39:39.233Z,11.18
2023-01-07T12:44:53.950Z,11.10
2023-01-07T12:48:02.441Z,11.17
2023-01-07T12:50:35.804Z,11.30
2023-01-07T12:53:07.481Z,11.35
2023-01-07T12:55:36.973Z,11.42
2023-01-07T12:58:15.110Z,11.40
2023-01-07T13:00:50.710Z,11.34
2023-01-07T13:03:28.485Z,11.36
2023-01-07T13:06:01.581Z,11.40
2023-01-07T13:08:56.568Z,11.41
2023-01-07T13:11:58.518Z,11.47
2023-01-07T13:14:33.247Z,11.38
2023-01-07T13:17:13.426Z,11.41
2023-01-07T13:19:39.763Z,11.36
2023-01-07T13:22:15.049Z,11.28
2023-01-07T13:24:56.939Z,11.27
2023-01-07T13:27:48.400Z,11.19
2023-01-07T13:30:34.256Z,11.31
2023-01-07T13:33:09.815Z,11.33
2023-01-07T13:35:47.493Z,11.33
2023-01-07T13:38:33.454Z,11.27
2023-01-07T13:41:49.121Z,11.27
2023-01-07T13:44:35.889Z,11.19
2023-01-07T13:47:04.973Z,11.10
2023-01-07T13:49:33.592Z,11.03
2023-01-07T13:52:18.216Z,11.06
2023-01-07T13:54:47.590Z,11.01
2023-01-07T13:57:23.253Z,11.02
2023-01-07T13:59:53.009Z,11.03
2023-01-07T14:02:22.493Z,11.04
2023-01-07T14:05:27.173Z,11.12
2023-01-07T14:08:00.011Z,11.04
2023-01-07T14:10:30.872Z,11.06
2023-01-07T14:13:15.665Z,11.03
2023-01-07T14:16:07.510Z,11.05
2023-01-07T14:18:59.784Z,11.04
2023-01-07T14:21:43.431Z,11.02
2023-01-07T14:24:26.843Z,11.00
2023-01-07T14:27:23.496Z,10.97
2023-01-07T14:29:54.294Z,11.02
2023-01-07T14:32:33.002Z,10.93
2023-01-07T14:35:20.062Z,10.92
2023-01-07T14:37:46.931Z,10.84
2023-01-07T14:40:25.474Z,10.90
2023-01-07T14:42:53.664Z,10.79
2023-01-07T14:45:41.814Z,10.84
2023-01-07T14:48:08.100Z,10.75
2023-01-07T14:50:46.959Z,10.73
2023-01-07T14:53:16.364Z,10.72
2023-01-07T14:55:56.985Z,10.65
2023-01-07T14:59:08.043Z,10.68
2023-01-07T15:01:54.703Z,10.61
2023-01-07T15:04:28.404Z,10.59
2023-01-07T15:07:00.413Z,10.63
2023-01-07T15:10:10.391Z,10.54
2023-01-07T15:13:13.468Z,10.51
2023-01-07T15:16:02.350Z,10.49
2023-01-07T15:18:31.070Z,10.39
2023-01-07T15:21:35.286Z,10.36
2023-01-07T15:24:17.409Z,10.33
2023-01-07T15:27:14.533Z,10.28
2023-01-07T15:29:40.814Z,10.18
2023-01-07T15:32:20.128Z,10.16
2023-01-07T15:34:47.098Z,10.22
2023-01-07T15:37:15.385Z,10.20
2023-01-07T15:39:49.393Z,10.11
2023-01-07T15:42:20.185Z,10.10
2023-01-07T15:44:53.122Z,10.03
2023-01-07T15:47:52.199Z,10.01
2023-01-07T15:50:18.507Z,9.88
2023-01-07T15:52:50.362Z,9.90
2023-01-07T15:55:25.841Z,9.85
2023-01-07T15:57:59.867Z,9.79
2023-01-07T16:00:26.457Z,9.71
2023-01-07T16:02:53.066Z,9.83
2023-01-07T16:05:19.668Z,9.86
2023-01-07T16:07:54.947Z,9.90
2023-01-07T16:10:24.082Z,9.85
2023-01-07T16:12:53.487Z,9.86
2023-01-07T16:15:31.832Z,9.78
2023-01-07T16:18:08.478Z,9.77
2023-01-07T16:20:38.419Z,9.75
2023-01-07T16:23:15.549Z,9.72
2023-01-07T16:25:48.784Z,9.59
2023-01-07T16:28:26.068Z,9.68
2023-01-07T16:30:54.143Z,9.61
2023-01-07T16:33:24.079Z,9.70
2023-01-07T16:35:53.690Z,9.66
2023-01-07T16:38:20.889Z,9.65
2023-01-07T16:40:48.145Z,9.67
2023-01-07T16:43:43.260Z,9.64
2023-01-07T16:46:27.298Z,9.66
2023-01-07T16:49:19.659Z,9.63
2023-01-07T16:52:03.195Z,9.58
2023-01-07T16:54:32.153Z,9.51
2023-01-07T16:57:16.762Z,9.53
2023-01-07T16:59:53.698Z,9.57
2023-01-07T17:02:34.144Z,9.49
2023-01-07T17:05:19.912Z,9.57
2023-01-07T17:08:00.328Z,9.56
2023-01-07T17:10:30.108Z,9.55
2023-01-07T17:13:02.007Z,9.59
2023-01-07T17:15:31.519Z,9.64
2023-01-07T17:18:13.135Z,9.68
2023-01-07T17:20:50.664Z,9.73
2023-01-07T17:23:41.291Z,9.73
2023-01-07T17:26:10.770Z,9.70
2023-01-07T17:28:46.593Z,9.76
2023-01-07T17:31:12.992Z,9.79
2023-01-07T17:33:39.517Z,9.76
2023-01-07T17:36:06.309Z,9.74
2023-01-07T17:38:32.751Z,9.67
2023-01-07T17:40:59.193Z,9.82
2023-01-07T17:43:35.773Z,9.77
2023-01-07T17:46:10.670Z,9.83
2023-01-07T17:48:37.403Z,9.73
2023-01-07T17:51:05.320Z,9.79
2023-01-07T17:53:34.021Z,9.82
2023-01-07T17:56:01.378Z,9.85
2023-01-07T17:58:33.224Z,9.77
2023-01-07T18:01:02.570Z,9.72
2023-01-07T18:03:29.156Z,9.80
2023-01-07T18:05:55.531Z,9.77
2023-01-07T18:08:21.904Z,9.73
2023-01-07T18:11:09.581Z,9.80
2023-01-07T18:13:36.175Z,9.80
2023-01-07T18:16:03.088Z,9.77
2023-01-07T18:18:29.464Z,9.76
2023-01-07T18:20:57.119Z,9.75
2023-01-07T18:23:24.535Z,9.73
2023-01-07T18:25:51.348Z,9.72
2023-01-07T18:28:17.861Z,9.78
2023-01-07T18:30:44.497Z,9.76
2023-01-07T18:33:11.898Z,9.77
2023-01-07T18:35:41.738Z,9.82
2023-01-07T18:38:15.608Z,9.75
2023-01-07T18:40:42.598Z,9.75
2023-01-07T18:43:16.886Z,9.78
2023-01-07T18:45:45.224Z,9.78
2023-01-07T18:48:13.345Z,9.91
2023-01-07T18:50:43.917Z,9.86
2023-01-07T18:53:10.878Z,9.85
2023-01-07T18:55:38.858Z,9.83
2023-01-07T18:58:05.840Z,9.81
2023-01-07T19:00:32.845Z,9.86
2023-01-07T19:02:59.652Z,9.88
2023-01-07T19:05:27.650Z,9.87
2023-01-07T19:07:55.271Z,9.89
2023-01-07T19:10:23.012Z,9.85
2023-01-07T19:12:50.251Z,9.85
2023-01-07T19:15:16.983Z,9.85
2023-01-07T19:17:43.388Z,9.89
2023-01-07T19:20:10.493Z,9.88
2023-01-07T19:22:36.812Z,9.91
2023-01-07T19:25:03.271Z,9.90
2023-01-07T19:27:29.638Z,9.89
2023-01-07T19:29:55.958Z,9.92
2023-01-07T19:32:22.276Z,9.90
2023-01-07T19:34:49.628Z,9.91
2023-01-07T19:37:15.990Z,9.90
2023-01-07T19:39:42.375Z,9.89
2023-01-07T19:42:09.838Z,10.01
2023-01-07T19:44:38.243Z,10.00
2023-01-07T19:47:04.777Z,10.01
2023-01-07T19:49:31.135Z,10.11
2023-01-07T19:51:57.610Z,10.18
2023-01-07T19:54:24.035Z,10.18
2023-01-07T19:56:50.389Z,10.16
2023-01-07T19:59:16.721Z,10.17
2023-01-07T20:01:44.972Z,10.19
2023-01-07T20:04:11.533Z,10.20
2023-01-07T20:06:41.188Z,10.23
2023-01-07T20:09:10.751Z,10.30
2023-01-07T20:11:38.415Z,10.28
2023-01-07T20:14:05.358Z,10.29
2023-01-07T20:16:31.820Z,10.36
2023-01-07T20:18:58.205Z,10.35
2023-01-07T20:21:25.729Z,10.38
2023-01-07T20:23:52.804Z,10.38
2023-01-07T20:26:21.979Z,10.37
2023-01-07T20:28:49.039Z,10.42
2023-01-07T20:31:18.011Z,10.53
2023-01-07T20:33:45.304Z,10.49
2023-01-07T20:36:14.573Z,10.53
2023-01-07T20:38:41.833Z,10.52
2023-01-07T20:41:11.973Z,10.51
2023-01-07T20:43:38.368Z,10.53
2023-01-07T20:46:06.689Z,10.49
2023-01-07T20:48:34.203Z,10.41
2023-01-07T20:51:08.004Z,10.31
2023-01-07T20:53:35.934Z,10.18
2023-01-07T20:56:03.693Z,10.07
2023-01-07T20:58:31.497Z,10.07
2023-01-07T21:00:58.078Z,10.01
2023-01-07T21:03:24.574Z,9.96
2023-01-07T21:05:55.812Z,9.91
2023-01-07T21:08:22.324Z,9.73
2023-01-07T21:10:48.704Z,9.74
2023-01-07T21:13:15.139Z,9.75
2023-01-07T21:15:41.549Z,9.69
2023-01-07T21:18:07.923Z,9.70
2023-01-07T21:20:34.313Z,9.68
2023-01-07T21:23:00.633Z,9.60
2023-01-07T21:25:27.152Z,9.60
2023-01-07T21:27:53.468Z,9.55
2023-01-07T21:30:20.112Z,9.55
2023-01-07T21:32:47.331Z,9.57
2023-01-07T21:35:14.169Z,9.54
2023-01-07T21:37:40.682Z,9.63
2023-01-07T21:40:07.578Z,9.59
2023-01-07T21:42:37.104Z,9.48
2023-01-07T21:45:05.184Z,9.55
2023-01-07T21:47:33.710Z,9.59
2023-01-07T21:50:00.067Z,9.63
2023-01-07T21:52:28.920Z,9.57
2023-01-07T21:54:56.095Z,9.56
2023-01-07T21:57:23.637Z,9.51
2023-01-07T21:59:49.963Z,9.55
2023-01-07T22:02:18.555Z,9.56
2023-01-07T22:04:46.074Z,9.54
2023-01-07T22:07:17.615Z,9.55
2023-01-07T22:09:44.876Z,9.56
2023-01-07T22:12:12.322Z,9.54
2023-01-07T22:14:38.979Z,9.54
2023-01-07T22:17:06.280Z,9.49
2023-01-07T22:19:32.639Z,9.42
2023-01-07T22:21:59.412Z,9.32
2023-01-07T22:24:25.831Z,9.31
2023-01-07T22:26:52.709Z,9.32
2023-01-07T22:29:19.058Z,9.27
2023-01-07T22:31:48.725Z,9.31
2023-01-07T22:34:15.156Z,9.29
2023-01-07T22:36:52.814Z,9.31
2023-01-07T22:39:31.541Z,9.32
2023-01-07T22:42:03.316Z,9.30
2023-01-07T22:44:36.518Z,9.30
2023-01-07T22:47:05.048Z,9.30
2023-01-07T22:49:32.820Z,9.37
2023-01-07T22:51:59.369Z,9.33
2023-01-07T22:54:26.194Z,9.36
2023-01-07T22:56:52.874Z,9.43
2023-01-07T22:59:19.220Z,9.47
2023-01-07T23:01:45.615Z,9.52
2023-01-07T23:04:12.313Z,9.56
2023-01-07T23:06:38.825Z,9.63
2023-01-07T23:09:05.675Z,9.74
2023-01-07T23:11:48.280Z,9.74
2023-01-07T23:14:19.993Z,9.79
2023-01-07T23:16:46.705Z,9.83
2023-01-07T23:19:13.848Z,9.84
2023-01-07T23:21:43.183Z,9.92
2023-01-07T23:24:10.635Z,9.90
2023-01-07T23:26:37.445Z,9.86
2023-01-07T23:29:04.383Z,9.86
2023-01-07T23:31:33.225Z,9.89
2023-01-07T23:34:00.561Z,9.88
2023-01-07T23:36:27.510Z,9.88
2023-01-07T23:38:53.925Z,9.91
2023-01-07T23:41:20.433Z,9.88
2023-01-07T23:43:47.760Z,9.87
2023-01-07T23:46:14.158Z,9.86
2023-01-07T23:48:40.626Z,9.87
2023-01-07T23:51:09.984Z,9.87
2023-01-07T23:53:36.522Z,9.88
2023-01-07T23:56:03.809Z,9.93
2023-01-07T23:58:30.746Z,9.91
